Time;durP1;ratioP1;P1;durP2;ratioP2;P2;SDS_P1;SDS_P2;PMS_P1;PMS_P2;Temp;Humidity;BMP_temperature;BMP_pressure;BME280_temperature;BME280_humidity;BME280_pressure;Samples;Min_cycle;Max_cycle;Signal;HPM_P1;HPM_P2
2022/04/12 00:01:41;;;;;;;9.02;5.18;;;;;;;;;;5070994;28;20040;-53
2022/04/12 00:04:08;;;;;;;10.90;6.10;;;;;;;;;;5069703;28;20047;-53
2022/04/12 00:06:34;;;;;;;10.00;5.65;;;;;;;;;;5070855;28;20043;-54
2022/04/12 00:09:00;;;;;;;10.10;5.47;;;;;;;;;;5070938;28;20047;-54
2022/04/12 00:11:26;;;;;;;9.30;5.30;;;6.10;99.90;;;;;;5070047;28;20508;-52
2022/04/12 00:13:52;;;;;;;11.02;5.60;;;;;;;;;;5069579;28;20059;-53
2022/04/12 00:16:18;;;;;;;9.80;5.40;;;;;;;;;;5071244;28;20044;-54
2022/04/12 00:19:02;;;;;;;10.15;5.43;;;;;;;;;;5070837;28;20043;-54
2022/04/12 00:21:29;;;;;;;11.75;5.63;;;;;;;;;;5070440;28;20039;-54
2022/04/12 00:23:57;;;;;;;10.90;4.78;;;6.30;99.90;;;;;;5068825;28;20111;-51
2022/04/12 00:26:23;;;;;;;10.30;4.72;;;;;;;;;;5070999;28;20038;-50
2022/04/12 00:28:49;;;;;;;9.27;5.65;;;;;;;;;;5069513;28;20047;-53
2022/04/12 00:31:15;;;;;;;7.95;4.85;;;;;;;;;;5070080;28;20602;-52
2022/04/12 00:33:41;;;;;;;10.07;5.10;;;;;;;;;;5068592;28;20072;-52
2022/04/12 00:36:09;;;;;;;11.98;5.15;;;6.40;99.90;;;;;;5071853;28;20248;-50
2022/04/12 00:38:35;;;;;;;11.68;4.82;;;;;;;;;;5072229;28;20040;-52
2022/04/12 00:41:04;;;;;;;10.38;5.18;;;6.40;99.90;;;;;;5069992;28;20040;-54
2022/04/12 00:43:35;;;;;;;8.88;4.47;;;6.40;99.90;;;;;;5072942;28;20077;-53
2022/04/12 00:46:01;;;;;;;7.80;4.60;;;;;;;;;;5073752;28;20840;-48
2022/04/12 00:48:28;;;;;;;11.10;5.00;;;6.20;99.90;;;;;;5075717;28;20833;-51
2022/04/12 00:50:55;;;;;;;10.10;5.00;;;;;;;;;;5055883;28;20047;-52
2022/04/12 00:53:21;;;;;;;10.00;4.97;;;;;;;;;;5074972;28;20055;-50
2022/04/12 00:55:47;;;;;;;6.97;4.57;;;;;;;;;;5075244;28;20110;-53
2022/04/12 00:58:14;;;;;;;10.98;5.15;;;5.90;99.90;;;;;;5074838;28;20551;-52
2022/04/12 01:00:41;;;;;;;11.32;5.43;;;;;;;;;;5073048;28;20046;-55
2022/04/12 01:03:07;;;;;;;9.40;4.70;;;;;;;;;;5072624;28;20576;-52
2022/04/12 01:05:33;;;;;;;8.80;4.68;;;;;;;;;;5054811;28;20060;-53
2022/04/12 01:08:01;;;;;;;15.13;4.88;;;5.90;99.90;;;;;;5072559;28;20122;-51
2022/04/12 01:10:27;;;;;;;12.27;6.13;;;;;;;;;;5073163;28;20036;-53
2022/04/12 01:12:53;;;;;;;10.27;5.20;;;;;;;;;;5072437;28;20593;-51
2022/04/12 01:15:21;;;;;;;9.13;5.85;;;5.80;99.90;;;;;;5073787;28;20445;-51
2022/04/12 01:17:48;;;;;;;11.15;5.40;;;;;;;;;;5073195;28;20123;-54
2022/04/12 01:20:16;;;;;;;9.38;5.03;;;5.70;99.90;;;;;;5073153;28;20345;-52
2022/04/12 01:22:55;;;;;;;9.98;5.45;;;5.80;99.90;;;;;;5054193;28;20055;-52
2022/04/12 01:25:22;;;;;;;8.30;5.07;;;5.70;99.90;;;;;;5073821;28;20032;-53
2022/04/12 01:27:50;;;;;;;10.60;6.47;;;5.70;99.90;;;;;;5073198;28;20560;-52
2022/04/12 01:30:16;;;;;;;11.38;5.53;;;;;;;;;;5073442;28;20044;-53
2022/04/12 01:32:42;;;;;;;10.43;5.47;;;;;;;;;;5074339;28;20044;-51
2022/04/12 01:35:10;;;;;;;10.88;5.78;;;5.60;99.90;;;;;;5072234;28;20048;-54
2022/04/12 01:37:36;;;;;;;11.02;6.28;;;;;;;;;;5072923;28;20119;-53
2022/04/12 01:40:04;;;;;;;14.55;8.00;;;5.70;99.90;;;;;;5072922;28;20040;-53
2022/04/12 01:42:30;;;;;;;10.98;5.90;;;;;;;;;;5073528;28;20044;-43
2022/04/12 01:44:56;;;;;;;10.20;5.63;;;;;;;;;;5073240;28;20605;-47
2022/04/12 01:47:22;;;;;;;13.63;6.05;;;;;;;;;;5072122;28;20044;-47
2022/04/12 01:49:49;;;;;;;12.43;6.22;;;5.50;99.90;;;;;;5072773;28;20432;-46
2022/04/12 01:52:15;;;;;;;11.48;6.82;;;;;;;;;;5072874;28;20051;-45
2022/04/12 01:54:42;;;;;;;13.00;6.78;;;;;;;;;;5073777;28;20036;-47
2022/04/12 01:57:09;;;;;;;10.45;6.13;;;5.40;99.90;;;;;;5055642;28;20064;-47
2022/04/12 01:59:35;;;;;;;13.73;6.30;;;;;;;;;;5074499;28;20481;-46
2022/04/12 02:02:01;;;;;;;11.38;6.35;;;;;;;;;;5073802;28;20043;-47
2022/04/12 02:04:27;;;;;;;13.13;5.65;;;;;;;;;;5074828;28;20136;-47
2022/04/12 02:06:54;;;;;;;10.45;6.25;;;;;;;;;;5073353;28;20134;-46
2022/04/12 02:09:20;;;;;;;9.82;6.28;;;;;;;;;;5074270;28;20040;-45
2022/04/12 02:11:46;;;;;;;11.13;6.05;;;;;;;;;;5072933;28;20036;-46
2022/04/12 02:14:12;;;;;;;12.75;7.32;;;;;;;;;;5072009;28;20075;-42
2022/04/12 02:16:38;;;;;;;11.27;7.30;;;;;;;;;;5070613;28;20055;-45
2022/04/12 02:19:04;;;;;;;14.43;7.07;;;;;;;;;;5073447;28;20069;-46
2022/04/12 02:21:30;;;;;;;11.77;7.57;;;;;;;;;;5072318;28;20249;-42
2022/04/12 02:23:56;;;;;;;11.27;7.03;;;;;;;;;;5072019;28;20057;-46
2022/04/12 02:26:23;;;;;;;12.48;6.85;;;5.30;99.90;;;;;;5054890;28;20048;-42
2022/04/12 02:28:49;;;;;;;17.17;7.28;;;;;;;;;;5072060;28;20526;-47
2022/04/12 02:31:15;;;;;;;13.93;7.90;;;;;;;;;;5071931;28;20059;-46
2022/04/12 02:33:41;;;;;;;11.38;6.63;;;;;;;;;;5071709;28;20549;-44
2022/04/12 02:36:07;;;;;;;13.85;7.45;;;;;;;;;;5072283;28;20043;-42
2022/04/12 02:38:33;;;;;;;14.70;7.47;;;;;;;;;;5071421;28;20392;-42
2022/04/12 02:40:59;;;;;;;12.43;7.25;;;;;;;;;;5071434;28;20069;-42
2022/04/12 02:43:25;;;;;;;12.85;8.18;;;;;;;;;;5072303;28;20064;-42
2022/04/12 02:45:52;;;;;;;10.73;7.20;;;;;;;;;;5072196;28;20280;-45
2022/04/12 02:48:19;;;;;;;13.50;7.68;;;5.40;99.90;;;;;;5071319;28;20056;-42
2022/04/12 02:50:45;;;;;;;12.57;7.53;;;;;;;;;;5072310;28;20071;-42
2022/04/12 02:53:11;;;;;;;9.90;7.20;;;;;;;;;;5070629;28;21199;-43
2022/04/12 02:55:37;;;;;;;12.18;7.80;;;;;;;;;;5072148;28;20036;-44
2022/04/12 02:58:03;;;;;;;16.48;8.20;;;;;;;;;;5070177;28;20130;-45
2022/04/12 03:00:29;;;;;;;11.18;7.20;;;;;;;;;;5072857;28;20109;-45
2022/04/12 03:02:56;;;;;;;12.55;7.53;;;;;;;;;;5073096;28;20043;-46
2022/04/12 03:05:22;;;;;;;12.98;8.05;;;;;;;;;;5054243;28;20152;-42
2022/04/12 03:07:48;;;;;;;13.15;7.65;;;;;;;;;;5070991;28;20048;-43
2022/04/12 03:10:15;;;;;;;13.25;8.52;;;5.30;99.90;;;;;;5071786;28;20040;-44
2022/04/12 03:12:41;;;;;;;15.35;7.22;;;;;;;;;;5072849;28;20036;-43
2022/04/12 03:15:08;;;;;;;15.48;7.80;;;;;;;;;;5071476;28;20516;-44
2022/04/12 03:17:36;;;;;;;15.98;7.82;;;5.10;99.90;;;;;;5071275;28;20577;-45
2022/04/12 03:20:02;;;;;;;10.30;7.47;;;;;;;;;;5055034;28;20043;-46
2022/04/12 03:22:28;;;;;;;12.07;7.68;;;;;;;;;;5071013;28;20048;-46
2022/04/12 03:24:55;;;;;;;13.00;8.25;;;;;;;;;;5071065;28;20055;-47
2022/04/12 03:27:21;;;;;;;12.70;8.38;;;;;;;;;;5070224;28;20087;-47
2022/04/12 03:29:47;;;;;;;11.68;8.43;;;;;;;;;;5070166;28;20044;-44
2022/04/12 03:32:14;;;;;;;12.88;8.48;;;4.80;99.90;;;;;;5070414;28;20345;-46
2022/04/12 03:34:41;;;;;;;15.52;9.55;;;;;;;;;;5050938;28;20508;-43
2022/04/12 03:37:08;;;;;;;15.93;9.95;;;;;;;;;;5069564;28;20520;-46
2022/04/12 03:39:35;;;;;;;13.43;8.48;;;5.00;99.90;;;;;;5070807;28;20044;-46
2022/04/12 03:42:04;;;;;;;14.30;9.05;;;;;;;;;;5051286;28;20039;-45
2022/04/12 03:44:30;;;;;;;16.33;8.63;;;;;;;;;;5070656;28;20044;-42
2022/04/12 03:46:56;;;;;;;16.95;8.32;;;;;;;;;;5070344;28;20078;-45
2022/04/12 03:49:22;;;;;;;12.27;8.43;;;;;;;;;;5071724;28;20050;-46
2022/04/12 03:51:48;;;;;;;15.90;9.63;;;;;;;;;;5070503;28;20189;-44
2022/04/12 03:54:14;;;;;;;14.10;9.48;;;;;;;;;;5070445;28;20781;-42
2022/04/12 03:56:42;;;;;;;13.63;8.95;;;;;;;;;;5070895;28;20702;-42
2022/04/12 03:59:08;;;;;;;14.98;10.10;;;;;;;;;;5070345;28;20496;-43
2022/04/12 04:01:34;;;;;;;12.73;8.85;;;;;;;;;;5070884;28;20047;-44
2022/04/12 04:04:01;;;;;;;11.32;8.50;;;;;;;;;;5069147;28;20036;-44
2022/04/12 04:06:27;;;;;;;16.02;8.85;;;;;;;;;;5069531;28;20065;-43
2022/04/12 04:08:53;;;;;;;13.73;8.73;;;;;;;;;;5070517;28;20080;-46
2022/04/12 04:11:20;;;;;;;15.88;9.15;;;4.90;99.90;;;;;;5069556;28;20085;-44
2022/04/12 04:13:46;;;;;;;16.65;9.20;;;;;;;;;;5069456;28;20078;-44
2022/04/12 04:16:12;;;;;;;13.07;8.98;;;;;;;;;;5069749;28;20046;-43
2022/04/12 04:18:40;;;;;;;16.00;9.27;;;4.90;99.90;;;;;;5072704;28;20076;-42
2022/04/12 04:21:06;;;;;;;16.23;9.50;;;;;;;;;;5076028;28;20798;-44
2022/04/12 04:23:32;;;;;;;13.00;9.25;;;;;;;;;;5073840;28;20506;-43
2022/04/12 04:25:58;;;;;;;14.13;9.15;;;;;;;;;;5074487;28;20443;-45
2022/04/12 04:28:29;;;;;;;14.65;9.50;;;;;;;;;;5076162;28;20420;-44
2022/04/12 04:30:55;;;;;;;13.05;8.48;;;;;;;;;;5075233;28;20051;-42
2022/04/12 04:33:21;;;;;;;13.95;9.27;;;;;;;;;;5074528;28;20625;-45
2022/04/12 04:35:48;;;;;;;13.98;9.48;;;4.80;99.90;;;;;;5075140;28;20396;-46
2022/04/12 04:38:15;;;;;;;13.68;10.00;;;4.90;99.90;;;;;;5056390;28;20406;-43
2022/04/12 04:40:43;;;;;;;15.55;8.98;;;4.80;99.90;;;;;;5076184;28;20097;-44
2022/04/12 04:43:09;;;;;;;13.07;9.35;;;;;;;;;;5074810;28;20071;-46
2022/04/12 04:45:35;;;;;;;14.65;9.50;;;4.70;99.90;;;;;;5074851;28;20051;-46
2022/04/12 04:48:04;;;;;;;15.02;9.23;;;4.80;99.90;;;;;;5074963;28;20048;-43
2022/04/12 04:50:32;;;;;;;14.50;9.13;;;4.70;99.90;;;;;;5075144;28;20465;-42
2022/04/12 04:52:59;;;;;;;13.43;8.70;;;4.60;99.90;;;;;;5054768;28;20083;-46
2022/04/12 04:55:27;;;;;;;12.88;9.20;;;4.70;99.90;;;;;;5072788;28;20249;-43
2022/04/12 04:57:57;;;;;;;13.48;9.13;;;4.50;99.90;;;;;;5073562;28;20033;-46
2022/04/12 05:00:25;;;;;;;14.38;9.30;;;4.70;99.90;;;;;;5072644;28;20040;-45
2022/04/12 05:02:53;;;;;;;13.40;9.98;;;4.60;99.90;;;;;;5072543;28;20599;-43
2022/04/12 05:05:20;;;;;;;19.20;9.30;;;;;;;;;;5072882;28;20093;-44
2022/04/12 05:07:47;;;;;;;15.15;9.30;;;4.50;99.90;;;;;;5072811;28;20583;-45
2022/04/12 05:10:21;;;;;;;13.43;9.07;;;4.60;99.90;;;;;;5073200;28;20032;-46
2022/04/12 05:12:47;;;;;;;15.80;9.90;;;;;;;;;;5072111;28;20048;-44
2022/04/12 05:15:13;;;;;;;15.52;10.70;;;;;;;;;;5072172;28;20048;-43
2022/04/12 05:17:40;;;;;;;14.95;8.85;;;;;;;;;;5072567;28;20762;-45
2022/04/12 05:20:09;;;;;;;14.88;9.77;;;4.90;99.90;;;;;;5072869;28;20722;-43
2022/04/12 05:22:35;;;;;;;14.68;9.93;;;;;;;;;;5073524;28;20040;-45
2022/04/12 05:25:03;;;;;;;18.13;10.30;;;5.20;99.90;;;;;;5072534;28;20051;-45
2022/04/12 05:27:33;;;;;;;17.70;10.38;;;5.20;99.90;;;;;;5072364;28;20588;-46
2022/04/12 05:30:03;;;;;;;14.73;9.50;;;5.30;99.90;;;;;;5072030;28;20302;-45
2022/04/12 05:32:29;;;;;;;12.48;9.60;;;;;;;;;;5072766;28;20043;-46
2022/04/12 05:34:58;;;;;;;18.35;11.10;;;5.80;99.90;;;;;;5073377;28;20039;-46
2022/04/12 05:37:24;;;;;;;14.15;9.50;;;;;;;;;;5072671;28;20119;-46
2022/04/12 05:39:50;;;;;;;13.38;9.40;;;;;;;;;;5072197;28;20141;-46
2022/04/12 05:42:16;;;;;;;12.10;8.70;;;;;;;;;;5070139;28;20144;-45
2022/04/12 05:44:43;;;;;;;12.27;8.82;;;;;;;;;;5072672;28;20067;-45
2022/04/12 05:47:15;;;;;;;12.15;8.15;;;7.20;99.90;;;;;;5071368;28;20127;-47
2022/04/12 05:49:44;;;;;;;14.88;9.13;;;7.20;99.90;;;;;;5072650;28;20067;-47
2022/04/12 05:52:10;;;;;;;16.10;9.45;;;;;;;;;;5072538;28;20036;-44
2022/04/12 05:54:36;;;;;;;13.25;8.68;;;;;;;;;;5071772;28;20032;-42
2022/04/12 05:57:03;;;;;;;13.95;8.48;;;7.20;99.90;;;;;;5072969;28;20601;-44
2022/04/12 05:59:31;;;;;;;13.82;8.48;;;7.10;99.90;;;;;;5072992;28;20119;-42
2022/04/12 06:01:57;;;;;;;16.30;8.63;;;;;;;;;;5072811;28;20489;-43
2022/04/12 06:04:23;;;;;;;14.73;9.02;;;;;;;;;;5073764;28;20029;-45
2022/04/12 06:06:52;;;;;;;13.80;8.90;;;6.90;99.90;;;;;;5072360;28;20512;-44
2022/04/12 06:09:18;;;;;;;12.50;8.65;;;;;;;;;;5072044;28;20036;-43
2022/04/12 06:11:45;;;;;;;13.32;8.57;;;;;;;;;;5072485;28;20127;-42
2022/04/12 06:14:11;;;;;;;16.15;9.38;;;;;;;;;;5071912;28;20060;-44
2022/04/12 06:16:37;;;;;;;14.27;9.18;;;;;;;;;;5072518;28;20127;-42
2022/04/12 06:19:03;;;;;;;12.85;8.23;;;;;;;;;;5071002;28;20044;-46
2022/04/12 06:21:29;;;;;;;12.80;9.00;;;;;;;;;;5073407;28;21023;-46
2022/04/12 06:23:55;;;;;;;13.23;8.70;;;;;;;;;;5071681;28;20131;-42
2022/04/12 06:26:21;;;;;;;12.90;8.80;;;;;;;;;;5070750;28;20319;-43
2022/04/12 06:28:50;;;;;;;11.35;8.13;;;7.40;99.90;;;;;;5071821;28;20040;-45
2022/04/12 06:31:16;;;;;;;14.40;8.55;;;;;;;;;;5070245;28;20385;-45
2022/04/12 06:33:42;;;;;;;11.00;7.78;;;;;;;;;;5071470;28;20732;-43
2022/04/12 06:36:08;;;;;;;14.27;9.10;;;;;;;;;;5071088;28;20051;-43
2022/04/12 06:38:34;;;;;;;13.57;8.23;;;;;;;;;;5071141;28;21065;-42
2022/04/12 06:41:01;;;;;;;20.38;9.18;;;;;;;;;;5070159;28;20043;-42
2022/04/12 06:43:27;;;;;;;13.43;8.57;;;;;;;;;;5071355;28;20032;-43
2022/04/12 06:45:53;;;;;;;13.77;9.20;;;;;;;;;;5072360;28;20124;-40
2022/04/12 06:48:19;;;;;;;16.45;9.23;;;;;;;;;;5071639;28;20288;-43
2022/04/12 06:50:48;;;;;;;12.00;8.88;;;7.70;99.90;;;;;;5071568;28;20036;-44
2022/04/12 06:53:14;;;;;;;12.60;8.68;;;;;;;;;;5051263;28;20036;-44
2022/04/12 06:55:40;;;;;;;11.82;8.23;;;;;;;;;;5072032;28;20108;-41
2022/04/12 06:58:06;;;;;;;12.95;8.50;;;8.20;99.90;;;;;;5070825;28;20581;-43
2022/04/12 07:00:32;;;;;;;13.10;8.55;;;8.30;99.90;;;;;;5070694;28;20082;-45
2022/04/12 07:02:59;;;;;;;12.00;8.13;;;8.40;99.90;;;;;;5069545;28;20063;-42
2022/04/12 07:05:25;;;;;;;10.82;8.20;;;;;;;;;;5037371;28;20083;-43
2022/04/12 07:07:53;;;;;;;14.90;8.82;;;;;;;;;;5071735;28;20035;-43
2022/04/12 07:10:18;;;;;;;12.93;9.43;;;8.90;99.90;;;;;;5071149;28;20044;-45
2022/04/12 07:12:44;;;;;;;14.73;8.88;;;9.40;99.90;;;;;;5070998;28;20097;-44
2022/04/12 07:15:12;;;;;;;13.27;9.23;;;9.60;99.90;;;;;;5072246;28;20063;-42
2022/04/12 07:17:41;;;;;;;13.70;8.35;;;10.20;99.90;;;;;;5071405;28;20048;-44
2022/04/12 07:20:07;;;;;;;12.88;7.93;;;11.20;99.90;;;;;;5072640;28;20056;-43
2022/04/12 07:22:33;;;;;;;11.82;7.88;;;11.90;99.90;;;;;;5072535;28;20036;-47
2022/04/12 07:24:59;;;;;;;12.45;7.82;;;12.70;99.90;;;;;;5071553;28;20043;-43
2022/04/12 07:27:25;;;;;;;12.43;7.93;;;12.80;99.90;;;;;;5071887;28;20059;-41
2022/04/12 07:29:50;;;;;;;15.02;8.20;;;13.10;99.90;;;;;;5071519;28;20032;-43
2022/04/12 07:32:18;;;;;;;14.05;8.40;;;13.00;99.90;;;;;;5070969;28;20085;-41
2022/04/12 07:34:44;;;;;;;12.45;8.48;;;13.90;99.90;;;;;;5071994;28;20459;-41
2022/04/12 07:37:09;;;;;;;11.43;8.38;;;14.80;99.90;;;;;;5070728;28;20752;-44
2022/04/12 07:39:36;;;;;;;11.27;8.13;;;14.10;99.90;;;;;;5070382;28;20090;-42
2022/04/12 07:42:02;;;;;;;13.40;8.73;;;13.80;99.90;;;;;;5071626;28;20040;-43
2022/04/12 07:44:27;;;;;;;12.30;8.02;;;13.10;99.90;;;;;;5052764;28;20036;-46
2022/04/12 07:46:55;;;;;;;12.40;7.95;;;14.40;99.90;;;;;;5070777;28;20066;-42
2022/04/12 07:49:21;;;;;;;13.32;8.38;;;15.40;99.90;;;;;;5069663;28;20055;-46
2022/04/12 07:51:47;;;;;;;11.25;8.18;;;13.50;99.90;;;;;;5071604;28;20408;-45
2022/04/12 07:54:12;;;;;;;13.07;8.10;;;14.30;99.90;;;;;;5072708;28;20138;-44
2022/04/12 07:56:39;;;;;;;11.48;8.20;;;14.70;99.90;;;;;;5073872;28;20032;-43
2022/04/12 07:59:06;;;;;;;12.63;8.25;;;14.90;99.90;;;;;;5074005;28;20131;-44
2022/04/12 08:01:32;;;;;;;12.95;7.88;;;14.90;99.90;;;;;;5075746;28;20035;-41
2022/04/12 08:03:58;;;;;;;12.73;7.95;;;14.90;99.90;;;;;;5074159;28;20044;-45
2022/04/12 08:06:23;;;;;;;10.93;7.53;;;14.80;99.90;;;;;;5072825;28;20043;-42
2022/04/12 08:08:51;;;;;;;11.27;7.60;;;14.10;99.90;;;;;;5073520;28;20301;-44
2022/04/12 08:11:17;;;;;;;12.52;8.02;;;14.90;99.90;;;;;;5072709;28;20189;-45
2022/04/12 08:13:43;;;;;;;14.35;8.02;;;14.70;99.90;;;;;;5073167;28;21223;-44
2022/04/12 08:16:09;;;;;;;12.32;8.68;;;16.70;99.90;;;;;;5074667;28;20079;-41
2022/04/12 08:18:35;;;;;;;12.02;8.52;;;14.80;99.90;;;;;;5073998;28;20040;-46
2022/04/12 08:21:01;;;;;;;12.15;8.70;;;14.70;99.90;;;;;;5075209;28;20036;-41
2022/04/12 08:23:27;;;;;;;10.43;7.43;;;15.10;99.90;;;;;;5074508;28;20419;-46
2022/04/12 08:25:53;;;;;;;11.18;7.93;;;16.70;99.90;;;;;;5073782;28;20523;-41
2022/04/12 08:28:19;;;;;;;12.43;7.88;;;14.70;99.90;;;;;;5055494;28;20047;-43
2022/04/12 08:30:46;;;;;;;10.95;8.07;;;15.00;99.90;;;;;;5072978;28;20032;-44
2022/04/12 08:33:13;;;;;;;12.93;8.55;;;14.60;99.90;;;;;;5074936;28;20313;-45
2022/04/12 08:35:39;;;;;;;12.75;7.75;;;14.60;99.90;;;;;;5072294;28;20113;-46
2022/04/12 08:38:05;;;;;;;12.05;7.93;;;14.50;99.90;;;;;;5073855;28;20046;-44
2022/04/12 08:40:31;;;;;;;14.15;7.68;;;14.50;99.90;;;;;;5075689;28;20039;-44
2022/04/12 08:42:58;;;;;;;13.88;8.65;;;14.50;99.90;;;;;;5073831;28;20036;-43
2022/04/12 08:45:26;;;;;;;10.30;7.78;;;14.30;99.90;;;;;;5073094;28;20043;-43
2022/04/12 08:47:52;;;;;;;14.13;8.50;;;14.40;99.90;;;;;;5074657;28;20044;-45
2022/04/12 08:50:21;;;;;;;13.63;7.95;;;14.40;99.90;;;;;;5074658;28;20047;-44
2022/04/12 08:52:47;;;;;;;10.32;7.88;;;14.50;99.90;;;;;;5075720;28;20040;-45
2022/04/12 08:55:13;;;;;;;11.93;7.93;;;14.70;99.90;;;;;;5072436;28;20359;-45
2022/04/12 08:57:39;;;;;;;12.10;7.82;;;15.70;99.90;;;;;;5055126;28;20048;-44
2022/04/12 09:00:07;;;;;;;12.57;7.65;;;14.60;99.90;;;;;;5072455;28;20039;-45
2022/04/12 09:02:33;;;;;;;12.95;7.80;;;14.80;99.90;;;;;;5073796;28;20123;-46
2022/04/12 09:04:59;;;;;;;12.07;7.28;;;12.80;99.90;;;;;;5073377;28;20085;-42
2022/04/12 09:07:28;;;;;;;10.18;7.18;;;14.90;99.90;;;;;;5071663;28;20047;-42
2022/04/12 09:10:09;;;;;;;11.85;8.15;;;15.00;99.90;;;;;;5072918;28;20040;-42
2022/04/12 09:12:36;;;;;;;10.83;7.80;;;14.80;99.90;;;;;;5072617;28;20047;-42
2022/04/12 09:15:08;;;;;;;12.68;7.88;;;16.20;99.90;;;;;;5052538;28;20131;-44
2022/04/12 09:17:37;;;;;;;;;;;14.70;99.90;;;;;;5070024;28;20208;-44
2022/04/12 09:20:13;;;;;;;14.18;8.15;;;15.00;99.90;;;;;;5071071;28;20395;-42
2022/04/12 09:22:40;;;;;;;9.88;7.38;;;15.30;99.90;;;;;;5073655;28;20052;-43
2022/04/12 09:25:07;;;;;;;12.15;7.80;;;15.50;99.90;;;;;;5073207;28;20349;-41
2022/04/12 09:27:35;;;;;;;11.57;8.32;;;15.80;99.90;;;;;;5072189;28;20448;-42
2022/04/12 09:30:05;;;;;;;11.32;7.82;;;16.30;99.90;;;;;;5072477;28;20074;-44
2022/04/12 09:32:39;;;;;;;11.50;7.72;;;17.00;99.90;;;;;;5072647;28;20083;-43
2022/04/12 09:35:05;;;;;;;12.23;7.57;;;17.30;99.90;;;;;;5071301;28;20515;-40
2022/04/12 09:37:33;;;;;;;12.05;8.60;;;17.60;99.90;;;;;;5071278;28;20113;-40
2022/04/12 09:39:59;;;;;;;11.73;7.97;;;17.40;99.90;;;;;;5071553;28;20078;-42
2022/04/12 09:42:37;;;;;;;11.95;7.35;;;17.00;99.90;;;;;;5071072;28;20496;-44
2022/04/12 09:45:08;;;;;;;12.13;8.05;;;16.70;99.90;;;;;;5070844;28;20048;-41
2022/04/12 09:47:34;;;;;;;11.88;7.07;;;16.40;99.90;;;;;;5069823;28;20474;-41
2022/04/12 09:50:01;;;;;;;10.60;7.50;;;16.40;99.90;;;;;;5069121;28;20056;-42
2022/04/12 09:52:27;;;;;;;11.00;7.68;;;16.40;99.90;;;;;;5072949;28;20279;-41
2022/04/12 09:54:56;;;;;;;12.05;7.65;;;16.20;99.90;;;;;;5071426;28;20565;-40
2022/04/12 09:57:23;;;;;;;11.18;7.68;;;16.10;99.90;;;;;;5070345;28;20044;-41
2022/04/12 09:59:53;;;;;;;11.57;7.80;;;16.20;99.90;;;;;;5069966;28;20484;-42
2022/04/12 10:02:19;;;;;;;11.90;7.70;;;16.20;99.90;;;;;;5069504;28;20056;-40
2022/04/12 10:04:46;;;;;;;13.25;7.68;;;16.10;99.90;;;;;;5072679;28;20036;-42
2022/04/12 10:07:16;;;;;;;12.95;8.07;;;17.30;99.90;;;;;;5074043;28;20493;-40
2022/04/12 10:09:43;;;;;;;13.48;7.82;;;16.40;99.90;;;;;;5074410;28;20040;-40
2022/04/12 10:12:09;;;;;;;11.75;8.13;;;16.30;99.90;;;;;;5072530;28;20044;-41
2022/04/12 10:14:35;;;;;;;10.77;7.78;;;16.70;99.90;;;;;;5070588;28;20059;-41
2022/04/12 10:17:02;;;;;;;12.88;7.97;;;16.70;99.90;;;;;;5071853;28;20043;-40
2022/04/12 10:19:29;;;;;;;12.80;8.00;;;16.80;99.90;;;;;;5072699;28;20519;-40
2022/04/12 10:21:55;;;;;;;12.23;8.23;;;16.80;99.90;;;;;;5074304;28;20511;-40
2022/04/12 10:24:22;;;;;;;14.95;7.90;;;17.10;99.90;;;;;;5071658;28;20143;-40
2022/04/12 10:26:50;;;;;;;10.35;7.47;;;17.00;99.90;;;;;;5054711;28;20318;-40
2022/04/12 10:29:16;;;;;;;11.38;8.05;;;17.10;99.90;;;;;;5072920;28;20662;-42
2022/04/12 10:31:55;;;;;;;11.73;8.68;;;17.00;99.90;;;;;;5072001;28;20918;-40
2022/04/12 10:34:21;;;;;;;11.73;7.28;;;17.00;99.90;;;;;;5070302;28;20028;-40
2022/04/12 10:37:05;;;;;;;13.07;7.53;;;16.70;99.90;;;;;;5072194;28;20046;-40
2022/04/12 10:39:44;;;;;;;14.10;8.52;;;16.90;99.90;;;;;;5071276;28;20036;-40
2022/04/12 10:42:14;;;;;;;11.68;7.63;;;16.90;99.90;;;;;;5070764;28;20044;-40
2022/04/12 10:44:45;;;;;;;14.15;8.05;;;16.80;99.90;;;;;;5071352;28;20122;-41
2022/04/12 10:47:31;;;;;;;14.10;7.70;;;16.80;99.90;;;;;;5070894;28;20040;-40
2022/04/12 10:50:08;;;;;;;9.57;7.20;;;17.00;99.90;;;;;;5072043;28;20369;-41
2022/04/12 10:52:38;;;;;;;11.73;7.03;;;17.00;99.90;;;;;;5070924;28;20127;-49
2022/04/12 10:55:06;;;;;;;11.70;7.63;;;17.20;99.90;;;;;;5071829;28;20058;-40
2022/04/12 10:57:33;;;;;;;11.45;7.25;;;17.50;99.90;;;;;;5069418;28;20054;-40
2022/04/12 11:00:08;;;;;;;12.60;8.00;;;17.40;99.90;;;;;;5070708;28;20040;-41
2022/04/12 11:02:45;;;;;;;10.13;7.00;;;17.50;99.90;;;;;;5070756;28;20170;-40
2022/04/12 11:05:56;;;;;;;12.25;7.82;;;17.50;99.90;;;;;;5048117;28;20596;-40
2022/04/12 11:08:23;;;;;;;13.80;7.05;;;17.70;99.90;;;;;;4969390;28;20047;-43
2022/04/12 11:10:52;;;;;;;11.43;6.68;;;18.00;99.90;;;;;;4969581;28;20118;-41
2022/04/12 11:13:28;;;;;;;10.55;7.75;;;17.90;99.90;;;;;;4967848;28;20250;-41
2022/04/12 11:15:55;;;;;;;13.05;7.70;;;17.90;99.90;;;;;;4969593;28;20542;-40
2022/04/12 11:18:21;;;;;;;10.15;7.63;;;18.00;99.90;;;;;;4968604;28;20729;-41
2022/04/12 11:21:02;;;;;;;11.65;7.03;;;18.10;99.90;;;;;;4970506;28;20116;-42
2022/04/12 11:24:04;;;;;;;10.85;7.05;;;18.00;99.90;;;;;;4969822;28;20145;-41
2022/04/12 11:26:38;;;;;;;12.52;7.20;;;18.10;99.90;;;;;;4967490;28;20101;-41
2022/04/12 11:29:09;;;;;;;11.02;7.03;;;17.90;99.90;;;;;;4965923;28;20061;-40
2022/04/12 11:31:42;;;;;;;10.50;7.13;;;17.90;99.90;;;;;;4966458;28;20046;-42
2022/04/12 11:34:11;;;;;;;9.30;6.65;;;17.80;99.90;;;;;;4967723;28;20460;-41
2022/04/12 11:36:44;;;;;;;11.60;7.30;;;17.90;99.90;;;;;;4969591;28;20038;-40
2022/04/12 11:39:10;;;;;;;12.63;7.60;;;18.00;99.90;;;;;;4969160;28;20483;-41
2022/04/12 11:41:37;;;;;;;11.25;7.75;;;17.90;99.90;;;;;;4969720;28;20042;-41
2022/04/12 11:44:05;;;;;;;13.00;7.72;;;18.10;99.90;;;;;;4970611;28;20046;-40
2022/04/12 11:46:31;;;;;;;11.52;7.55;;;17.90;99.90;;;;;;5071069;28;20512;-41
2022/04/12 11:49:11;;;;;;;11.98;7.88;;;17.90;99.90;;;;;;5071156;28;21234;-42
2022/04/12 11:51:37;;;;;;;11.65;7.47;;;18.00;99.90;;;;;;5071402;28;20036;-40
2022/04/12 11:54:22;;;;;;;10.38;7.53;;;18.00;99.90;;;;;;5070615;28;20052;-40
2022/04/12 11:57:09;;;;;;;12.18;7.82;;;17.90;99.90;;;;;;5070513;28;20715;-41
2022/04/12 11:59:37;;;;;;;12.07;7.80;;;16.00;99.90;;;;;;5070795;28;20047;-41
2022/04/12 12:02:05;;;;;;;10.40;8.00;;;17.70;99.90;;;;;;5068856;28;20052;-41
2022/04/12 12:04:33;;;;;;;13.52;7.90;;;18.50;99.90;;;;;;5069561;28;20393;-41
2022/04/12 12:06:59;;;;;;;11.20;7.20;;;18.60;99.90;;;;;;5070104;28;20040;-41
2022/04/12 12:09:26;;;;;;;13.23;8.15;;;18.10;99.90;;;;;;5070618;28;20071;-41
2022/04/12 12:11:52;;;;;;;10.35;7.53;;;19.00;99.90;;;;;;5070564;28;20035;-40
2022/04/12 12:14:21;;;;;;;12.55;8.00;;;18.50;99.90;;;;;;5069203;28;20094;-41
2022/04/12 12:17:04;;;;;;;11.32;7.47;;;18.40;99.90;;;;;;5069980;28;20040;-40
2022/04/12 12:19:33;;;;;;;10.23;6.72;;;18.40;99.90;;;;;;5069799;28;20455;-42
2022/04/12 12:22:00;;;;;;;11.30;7.07;;;18.90;99.90;;;;;;5070382;28;20331;-43
2022/04/12 12:24:26;;;;;;;12.48;7.70;;;18.60;99.90;;;;;;5070941;28;20040;-42
2022/04/12 12:26:57;;;;;;;13.68;7.85;;;19.10;99.90;;;;;;5069790;28;20047;-41
2022/04/12 12:29:26;;;;;;;13.27;7.35;;;18.60;99.90;;;;;;5069531;28;20043;-42
2022/04/12 12:31:56;;;;;;;10.57;6.55;;;18.50;99.90;;;;;;5069950;28;20036;-42
2022/04/12 12:34:34;;;;;;;11.38;6.82;;;20.00;99.90;;;;;;5070871;28;20036;-43
2022/04/12 12:37:10;;;;;;;11.60;7.60;;;19.00;99.90;;;;;;5068498;28;20044;-43
2022/04/12 12:39:41;;;;;;;12.25;7.00;;;18.40;99.90;;;;;;5070281;28;20032;-43
2022/04/12 12:42:07;;;;;;;11.68;6.70;;;18.20;99.90;;;;;;5072416;28;20044;-45
2022/04/12 12:44:36;;;;;;;13.82;7.20;;;18.50;99.90;;;;;;5073307;28;20040;-42
2022/04/12 12:47:04;;;;;;;12.70;7.22;;;18.60;99.90;;;;;;5074145;28;20044;-41
2022/04/12 12:49:37;;;;;;;10.88;7.20;;;18.60;99.90;;;;;;5075041;28;20252;-43
2022/04/12 12:52:05;;;;;;;12.30;7.25;;;18.70;99.90;;;;;;5075164;28;20044;-41
2022/04/12 12:54:31;;;;;;;13.93;7.47;;;18.90;99.90;;;;;;5075109;28;20523;-41
2022/04/12 12:56:57;;;;;;;11.82;7.70;;;18.80;99.90;;;;;;5073961;28;20040;-41
2022/04/12 12:59:31;;;;;;;11.15;7.63;;;18.90;99.90;;;;;;5074607;28;20307;-41
2022/04/12 13:01:57;;;;;;;11.93;7.85;;;18.70;99.90;;;;;;5074049;28;20050;-44
2022/04/12 13:04:31;;;;;;;13.02;7.22;;;18.50;99.90;;;;;;5074415;28;20067;-42
2022/04/12 13:07:07;;;;;;;10.77;7.32;;;18.70;99.90;;;;;;5075158;28;20712;-43
2022/04/12 13:09:39;;;;;;;13.38;7.70;;;18.60;99.90;;;;;;5072709;28;20786;-41
2022/04/12 13:12:05;;;;;;;13.50;7.97;;;18.30;99.90;;;;;;5072783;28;20504;-42
2022/04/12 13:14:31;;;;;;;11.15;7.43;;;18.60;99.90;;;;;;5053100;28;20059;-40
2022/04/12 13:16:57;;;;;;;11.70;7.95;;;19.30;99.90;;;;;;5073032;28;20128;-42
2022/04/12 13:19:31;;;;;;;14.18;7.43;;;18.50;99.90;;;;;;5053766;28;20052;-43
2022/04/12 13:21:58;;;;;;;12.90;8.25;;;18.40;99.90;;;;;;5073235;28;20048;-43